This is the latest recevied weather packets stored in our database for station/object EA7HQL-10. If no packets are shown the sender has not sent any weather packets the latest 1 day(s).
| Time | Temp. | Humidity | Pressure | Rain* | Wind** | Luminosity | Snow |
|---|---|---|---|---|---|---|---|
| 1836274655 | 28.33° C | 47% | 1015.2 hPa | 0 mm | 1.34 m/s, 342° | - | - |
| 1836274495 | 28.33° C | 47% | 1015.2 hPa | 0 mm | 1.34 m/s, 342° | - | - |
| 1836274385 | 28.33° C | 47% | 1015.2 hPa | 0 mm | 1.34 m/s, 342° | - | - |
| 1836274200 | 28.33° C | 47% | 1015.2 hPa | 0 mm | 1.34 m/s, 342° | - | - |
| 1836274140 | 28.33° C | 47% | 1015.2 hPa | 0 mm | 1.34 m/s, 342° | - | - |
| 1836273895 | 28.33° C | 47% | 1015.2 hPa | 0 mm | 1.34 m/s, 342° | - | - |
| 1778062395 | 20.56° C | 47% | 1008.9 hPa | 0 mm | 1.34 m/s, 142° | - | - |
| 1778062140 | 20.56° C | 48% | 1009 hPa | 0 mm | 2.24 m/s, 129° | - | - |
| 1778061895 | 20° C | 49% | 1009.1 hPa | 0 mm | 1.34 m/s, 161° | - | - |
| 1778061635 | 20° C | 53% | 1008.9 hPa | 0 mm | 2.24 m/s, 176° | - | - |
| 1778061370 | 20° C | 56% | 1009 hPa | 0 mm | 1.34 m/s, 184° | - | - |
| 1778061121 | 20° C | 58% | 1008.9 hPa | 0 mm | 2.24 m/s, 125° | - | - |
| 1778060871 | 19.44° C | 57% | 1009 hPa | 0 mm | 2.68 m/s, 146° | - | - |
| 1778060620 | 19.44° C | 55% | 1009 hPa | 0 mm | 3.13 m/s, 149° | - | - |
| 1778060335 | 20° C | 52% | 1008.9 hPa | 0 mm | 2.68 m/s, 147° | - | - |
| 1778060081 | 20.56° C | 51% | 1009 hPa | 0 mm | 2.68 m/s, 143° | - | - |
| 1778059790 | 21.11° C | 47% | 1009 hPa | 0 mm | 0.89 m/s, 124° | - | - |
| 1778059221 | 20.56° C | 51% | 1009 hPa | 0 mm | 1.79 m/s, 137° | - | - |
| 1778058940 | 21.11° C | 46% | 1008.8 hPa | 0 mm | 1.34 m/s, 106° | - | - |
| 1778058665 | 20.56° C | 48% | 1008.9 hPa | 0 mm | 0.89 m/s, 145° | - | - |
| 1778058365 | 20.56° C | 47% | 1009 hPa | 0 mm | 0.45 m/s, 112° | - | - |
| 1778058088 | 20.56° C | 47% | 1008.9 hPa | 0 mm | 0.45 m/s, 122° | - | - |
| 1778057810 | 21.11° C | 46% | 1009 hPa | 0 mm | 1.34 m/s, 114° | - | - |
| 1778057560 | 21.11° C | 46% | 1009 hPa | 0 mm | 0 m/s | - | - |
| 1778057280 | 21.11° C | 46% | 1009 hPa | 0 mm | 0.89 m/s, 118° | - | - |
* Rain latest hour (hover to see other rain measurements)
** Current wind speed in m/s (hover to see current wind gust speed)